sensor_id;sensor_type;location;lat;lon;timestamp;P1;durP1;ratioP1;P2;durP2;ratioP2
5491;SDS011;2768;53.540;10.224;2022-12-18T00:02:12;13.90;;;9.77;;
5491;SDS011;2768;53.540;10.224;2022-12-18T00:08:07;13.80;;;10.13;;
5491;SDS011;2768;53.540;10.224;2022-12-18T00:14:01;12.73;;;8.97;;
5491;SDS011;2768;53.540;10.224;2022-12-18T00:19:54;12.60;;;9.43;;
5491;SDS011;2768;53.540;10.224;2022-12-18T00:25:49;11.97;;;9.47;;
5491;SDS011;2768;53.540;10.224;2022-12-18T00:31:42;11.40;;;8.73;;
5491;SDS011;2768;53.540;10.224;2022-12-18T00:37:36;10.23;;;8.50;;
5491;SDS011;2768;53.540;10.224;2022-12-18T00:43:33;11.83;;;9.20;;
5491;SDS011;2768;53.540;10.224;2022-12-18T00:49:27;9.20;;;8.13;;
5491;SDS011;2768;53.540;10.224;2022-12-18T00:55:21;10.37;;;7.93;;
5491;SDS011;2768;53.540;10.224;2022-12-18T01:01:16;11.00;;;8.50;;
5491;SDS011;2768;53.540;10.224;2022-12-18T01:07:10;11.27;;;8.30;;
5491;SDS011;2768;53.540;10.224;2022-12-18T01:13:04;9.87;;;8.10;;
5491;SDS011;2768;53.540;10.224;2022-12-18T01:18:58;10.17;;;7.50;;
5491;SDS011;2768;53.540;10.224;2022-12-18T01:24:51;11.00;;;8.37;;
5491;SDS011;2768;53.540;10.224;2022-12-18T01:30:46;10.23;;;7.43;;
5491;SDS011;2768;53.540;10.224;2022-12-18T01:36:41;11.20;;;8.30;;
5491;SDS011;2768;53.540;10.224;2022-12-18T01:42:34;8.37;;;7.37;;
5491;SDS011;2768;53.540;10.224;2022-12-18T01:48:28;8.80;;;7.00;;
5491;SDS011;2768;53.540;10.224;2022-12-18T01:54:23;10.60;;;7.70;;
5491;SDS011;2768;53.540;10.224;2022-12-18T02:00:18;8.63;;;7.47;;
5491;SDS011;2768;53.540;10.224;2022-12-18T02:06:16;6.87;;;5.83;;
5491;SDS011;2768;53.540;10.224;2022-12-18T02:12:16;7.57;;;6.87;;
5491;SDS011;2768;53.540;10.224;2022-12-18T02:18:13;7.83;;;6.20;;
5491;SDS011;2768;53.540;10.224;2022-12-18T02:24:17;10.67;;;7.50;;
5491;SDS011;2768;53.540;10.224;2022-12-18T02:30:18;9.50;;;7.63;;
5491;SDS011;2768;53.540;10.224;2022-12-18T02:36:12;10.50;;;7.77;;
5491;SDS011;2768;53.540;10.224;2022-12-18T02:42:09;8.53;;;7.40;;
5491;SDS011;2768;53.540;10.224;2022-12-18T02:48:07;10.80;;;6.93;;
5491;SDS011;2768;53.540;10.224;2022-12-18T02:54:02;7.87;;;6.13;;
5491;SDS011;2768;53.540;10.224;2022-12-18T03:00:04;12.50;;;7.87;;
5491;SDS011;2768;53.540;10.224;2022-12-18T03:06:03;12.13;;;7.40;;
5491;SDS011;2768;53.540;10.224;2022-12-18T03:12:04;8.27;;;7.10;;
5491;SDS011;2768;53.540;10.224;2022-12-18T03:18:20;7.43;;;6.70;;
5491;SDS011;2768;53.540;10.224;2022-12-18T03:24:17;8.83;;;6.70;;
5491;SDS011;2768;53.540;10.224;2022-12-18T03:30:13;8.17;;;6.43;;
5491;SDS011;2768;53.540;10.224;2022-12-18T03:36:09;7.90;;;7.10;;
5491;SDS011;2768;53.540;10.224;2022-12-18T03:42:05;10.37;;;7.57;;
5491;SDS011;2768;53.540;10.224;2022-12-18T03:48:08;8.60;;;7.70;;
5491;SDS011;2768;53.540;10.224;2022-12-18T03:54:10;11.77;;;7.93;;
5491;SDS011;2768;53.540;10.224;2022-12-18T04:00:14;11.00;;;7.60;;
5491;SDS011;2768;53.540;10.224;2022-12-18T04:06:19;8.83;;;7.00;;
5491;SDS011;2768;53.540;10.224;2022-12-18T04:12:15;8.57;;;6.43;;
5491;SDS011;2768;53.540;10.224;2022-12-18T04:18:12;8.83;;;6.93;;
5491;SDS011;2768;53.540;10.224;2022-12-18T04:24:07;11.70;;;7.93;;
5491;SDS011;2768;53.540;10.224;2022-12-18T04:30:06;9.77;;;7.33;;
5491;SDS011;2768;53.540;10.224;2022-12-18T04:36:02;9.23;;;7.30;;
5491;SDS011;2768;53.540;10.224;2022-12-18T04:41:56;9.50;;;6.80;;
5491;SDS011;2768;53.540;10.224;2022-12-18T04:47:50;11.90;;;8.80;;
5491;SDS011;2768;53.540;10.224;2022-12-18T04:53:44;11.80;;;7.87;;
5491;SDS011;2768;53.540;10.224;2022-12-18T04:59:37;10.17;;;7.47;;
5491;SDS011;2768;53.540;10.224;2022-12-18T05:05:31;7.93;;;6.80;;
5491;SDS011;2768;53.540;10.224;2022-12-18T05:11:27;8.37;;;6.80;;
5491;SDS011;2768;53.540;10.224;2022-12-18T05:17:21;8.93;;;7.30;;
5491;SDS011;2768;53.540;10.224;2022-12-18T05:23:14;10.80;;;7.37;;
5491;SDS011;2768;53.540;10.224;2022-12-18T05:29:09;11.60;;;7.73;;
5491;SDS011;2768;53.540;10.224;2022-12-18T05:35:05;9.87;;;7.17;;
5491;SDS011;2768;53.540;10.224;2022-12-18T05:41:00;10.57;;;8.63;;
5491;SDS011;2768;53.540;10.224;2022-12-18T05:46:55;10.83;;;7.80;;
5491;SDS011;2768;53.540;10.224;2022-12-18T05:52:48;9.03;;;7.50;;
5491;SDS011;2768;53.540;10.224;2022-12-18T05:58:43;10.10;;;8.27;;
5491;SDS011;2768;53.540;10.224;2022-12-18T06:04:40;10.63;;;8.20;;
5491;SDS011;2768;53.540;10.224;2022-12-18T06:10:33;12.30;;;8.80;;
5491;SDS011;2768;53.540;10.224;2022-12-18T06:16:28;12.90;;;9.00;;
5491;SDS011;2768;53.540;10.224;2022-12-18T06:22:24;14.43;;;9.60;;
5491;SDS011;2768;53.540;10.224;2022-12-18T06:28:17;12.60;;;8.60;;
5491;SDS011;2768;53.540;10.224;2022-12-18T06:34:12;10.67;;;8.70;;
5491;SDS011;2768;53.540;10.224;2022-12-18T06:40:07;11.20;;;8.80;;
5491;SDS011;2768;53.540;10.224;2022-12-18T06:46:04;13.10;;;9.60;;
5491;SDS011;2768;53.540;10.224;2022-12-18T06:51:59;15.27;;;9.93;;
5491;SDS011;2768;53.540;10.224;2022-12-18T06:57:54;11.47;;;9.90;;
5491;SDS011;2768;53.540;10.224;2022-12-18T07:03:50;11.23;;;8.47;;
5491;SDS011;2768;53.540;10.224;2022-12-18T07:10:20;12.70;;;9.37;;
5491;SDS011;2768;53.540;10.224;2022-12-18T07:16:15;14.97;;;9.23;;
5491;SDS011;2768;53.540;10.224;2022-12-18T07:22:16;12.90;;;9.43;;
5491;SDS011;2768;53.540;10.224;2022-12-18T07:28:11;12.33;;;9.47;;
5491;SDS011;2768;53.540;10.224;2022-12-18T07:34:11;11.40;;;9.40;;
5491;SDS011;2768;53.540;10.224;2022-12-18T07:40:04;11.60;;;8.33;;
5491;SDS011;2768;53.540;10.224;2022-12-18T07:45:59;11.90;;;9.03;;
5491;SDS011;2768;53.540;10.224;2022-12-18T07:51:54;12.30;;;9.50;;
5491;SDS011;2768;53.540;10.224;2022-12-18T07:57:48;16.13;;;9.50;;
5491;SDS011;2768;53.540;10.224;2022-12-18T08:03:50;11.53;;;8.83;;
5491;SDS011;2768;53.540;10.224;2022-12-18T08:09:45;13.53;;;9.57;;
5491;SDS011;2768;53.540;10.224;2022-12-18T08:15:39;13.97;;;9.00;;
5491;SDS011;2768;53.540;10.224;2022-12-18T08:21:32;14.77;;;9.60;;
5491;SDS011;2768;53.540;10.224;2022-12-18T08:27:27;18.17;;;11.70;;
5491;SDS011;2768;53.540;10.224;2022-12-18T08:33:21;13.13;;;10.10;;
5491;SDS011;2768;53.540;10.224;2022-12-18T08:39:14;16.37;;;10.50;;
5491;SDS011;2768;53.540;10.224;2022-12-18T08:45:09;12.10;;;9.10;;
5491;SDS011;2768;53.540;10.224;2022-12-18T08:51:03;13.30;;;9.20;;
5491;SDS011;2768;53.540;10.224;2022-12-18T08:56:57;14.03;;;9.87;;
5491;SDS011;2768;53.540;10.224;2022-12-18T09:02:52;16.40;;;10.20;;
5491;SDS011;2768;53.540;10.224;2022-12-18T09:08:46;14.47;;;10.33;;
5491;SDS011;2768;53.540;10.224;2022-12-18T09:14:39;13.73;;;9.23;;
5491;SDS011;2768;53.540;10.224;2022-12-18T09:20:34;15.73;;;10.00;;
5491;SDS011;2768;53.540;10.224;2022-12-18T09:26:27;13.53;;;9.80;;
5491;SDS011;2768;53.540;10.224;2022-12-18T09:32:20;11.40;;;8.70;;
5491;SDS011;2768;53.540;10.224;2022-12-18T09:38:16;15.47;;;9.47;;
5491;SDS011;2768;53.540;10.224;2022-12-18T09:44:12;12.87;;;9.03;;
5491;SDS011;2768;53.540;10.224;2022-12-18T09:50:16;13.37;;;9.60;;
5491;SDS011;2768;53.540;10.224;2022-12-18T09:56:18;12.50;;;8.57;;
5491;SDS011;2768;53.540;10.224;2022-12-18T10:02:15;13.80;;;9.83;;
5491;SDS011;2768;53.540;10.224;2022-12-18T10:08:11;13.17;;;10.40;;
5491;SDS011;2768;53.540;10.224;2022-12-18T10:14:13;13.03;;;10.00;;
5491;SDS011;2768;53.540;10.224;2022-12-18T10:20:13;14.53;;;10.40;;
5491;SDS011;2768;53.540;10.224;2022-12-18T10:26:12;13.97;;;9.30;;
5491;SDS011;2768;53.540;10.224;2022-12-18T10:32:08;11.00;;;9.30;;
5491;SDS011;2768;53.540;10.224;2022-12-18T10:38:20;14.73;;;10.43;;
5491;SDS011;2768;53.540;10.224;2022-12-18T10:44:17;11.50;;;8.87;;
5491;SDS011;2768;53.540;10.224;2022-12-18T10:50:23;14.00;;;9.40;;
5491;SDS011;2768;53.540;10.224;2022-12-18T10:56:41;12.93;;;9.80;;
5491;SDS011;2768;53.540;10.224;2022-12-18T11:02:37;13.50;;;9.87;;
5491;SDS011;2768;53.540;10.224;2022-12-18T11:08:32;14.50;;;10.93;;
5491;SDS011;2768;53.540;10.224;2022-12-18T11:14:26;15.88;;;11.85;;
5491;SDS011;2768;53.540;10.224;2022-12-18T11:20:23;15.70;;;11.50;;
5491;SDS011;2768;53.540;10.224;2022-12-18T11:26:25;12.60;;;9.30;;
5491;SDS011;2768;53.540;10.224;2022-12-18T11:32:29;15.00;;;10.60;;
5491;SDS011;2768;53.540;10.224;2022-12-18T11:38:26;15.40;;;10.57;;
5491;SDS011;2768;53.540;10.224;2022-12-18T11:44:26;15.50;;;11.20;;
5491;SDS011;2768;53.540;10.224;2022-12-18T11:50:24;19.50;;;11.80;;
5491;SDS011;2768;53.540;10.224;2022-12-18T11:56:26;20.33;;;12.83;;
5491;SDS011;2768;53.540;10.224;2022-12-18T12:02:30;15.10;;;10.93;;
5491;SDS011;2768;53.540;10.224;2022-12-18T12:08:38;15.07;;;10.97;;
5491;SDS011;2768;53.540;10.224;2022-12-18T12:14:43;16.80;;;11.57;;
5491;SDS011;2768;53.540;10.224;2022-12-18T12:20:47;14.73;;;10.77;;
5491;SDS011;2768;53.540;10.224;2022-12-18T12:26:48;14.67;;;10.53;;
5491;SDS011;2768;53.540;10.224;2022-12-18T12:32:58;14.43;;;10.47;;
5491;SDS011;2768;53.540;10.224;2022-12-18T12:39:04;16.10;;;11.00;;
5491;SDS011;2768;53.540;10.224;2022-12-18T12:45:01;16.70;;;11.10;;
5491;SDS011;2768;53.540;10.224;2022-12-18T12:51:00;17.87;;;11.37;;
5491;SDS011;2768;53.540;10.224;2022-12-18T12:57:00;13.77;;;9.10;;
5491;SDS011;2768;53.540;10.224;2022-12-18T13:03:03;15.70;;;10.70;;
5491;SDS011;2768;53.540;10.224;2022-12-18T13:09:05;14.47;;;10.37;;
5491;SDS011;2768;53.540;10.224;2022-12-18T13:15:13;14.30;;;9.87;;
5491;SDS011;2768;53.540;10.224;2022-12-18T13:21:16;14.70;;;9.93;;
5491;SDS011;2768;53.540;10.224;2022-12-18T13:33:55;16.77;;;10.17;;
5491;SDS011;2768;53.540;10.224;2022-12-18T13:46:49;13.53;;;8.33;;
5491;SDS011;2768;53.540;10.224;2022-12-18T13:52:45;15.40;;;10.70;;
5491;SDS011;2768;53.540;10.224;2022-12-18T13:58:39;16.37;;;11.80;;
5491;SDS011;2768;53.540;10.224;2022-12-18T14:04:33;18.60;;;11.87;;
5491;SDS011;2768;53.540;10.224;2022-12-18T14:10:29;21.77;;;12.57;;
5491;SDS011;2768;53.540;10.224;2022-12-18T14:16:40;20.23;;;12.33;;
5491;SDS011;2768;53.540;10.224;2022-12-18T14:22:34;17.37;;;10.80;;
5491;SDS011;2768;53.540;10.224;2022-12-18T14:28:28;19.90;;;12.30;;
5491;SDS011;2768;53.540;10.224;2022-12-18T14:34:22;20.20;;;12.10;;
5491;SDS011;2768;53.540;10.224;2022-12-18T14:40:19;23.10;;;14.00;;
5491;SDS011;2768;53.540;10.224;2022-12-18T14:46:27;20.67;;;12.43;;
5491;SDS011;2768;53.540;10.224;2022-12-18T14:52:26;23.80;;;13.40;;
5491;SDS011;2768;53.540;10.224;2022-12-18T14:58:21;24.93;;;13.30;;
5491;SDS011;2768;53.540;10.224;2022-12-18T15:04:26;22.30;;;13.37;;
5491;SDS011;2768;53.540;10.224;2022-12-18T15:10:22;26.10;;;13.87;;
5491;SDS011;2768;53.540;10.224;2022-12-18T15:16:17;27.20;;;14.73;;
5491;SDS011;2768;53.540;10.224;2022-12-18T15:28:22;22.23;;;13.33;;
5491;SDS011;2768;53.540;10.224;2022-12-18T15:34:19;22.70;;;12.83;;
5491;SDS011;2768;53.540;10.224;2022-12-18T15:40:16;24.70;;;13.87;;
5491;SDS011;2768;53.540;10.224;2022-12-18T15:46:11;25.40;;;15.87;;
5491;SDS011;2768;53.540;10.224;2022-12-18T15:52:08;27.27;;;14.00;;
5491;SDS011;2768;53.540;10.224;2022-12-18T15:58:19;25.57;;;15.40;;
5491;SDS011;2768;53.540;10.224;2022-12-18T16:04:12;27.30;;;15.77;;
5491;SDS011;2768;53.540;10.224;2022-12-18T16:10:07;29.07;;;15.33;;
5491;SDS011;2768;53.540;10.224;2022-12-18T16:16:02;29.10;;;14.70;;
5491;SDS011;2768;53.540;10.224;2022-12-18T16:21:57;25.40;;;14.20;;
5491;SDS011;2768;53.540;10.224;2022-12-18T16:27:51;26.67;;;14.30;;
5491;SDS011;2768;53.540;10.224;2022-12-18T16:33:47;28.60;;;14.40;;
5491;SDS011;2768;53.540;10.224;2022-12-18T16:39:41;24.30;;;13.67;;
5491;SDS011;2768;53.540;10.224;2022-12-18T16:45:35;26.90;;;14.80;;
5491;SDS011;2768;53.540;10.224;2022-12-18T16:51:33;26.77;;;16.20;;
5491;SDS011;2768;53.540;10.224;2022-12-18T16:57:27;20.40;;;12.67;;
5491;SDS011;2768;53.540;10.224;2022-12-18T17:03:20;21.60;;;12.43;;
5491;SDS011;2768;53.540;10.224;2022-12-18T17:09:15;20.23;;;12.67;;
5491;SDS011;2768;53.540;10.224;2022-12-18T17:15:09;21.97;;;14.37;;
5491;SDS011;2768;53.540;10.224;2022-12-18T17:21:03;21.20;;;12.57;;
5491;SDS011;2768;53.540;10.224;2022-12-18T17:27:02;22.57;;;12.50;;
5491;SDS011;2768;53.540;10.224;2022-12-18T17:32:56;22.40;;;12.60;;
5491;SDS011;2768;53.540;10.224;2022-12-18T17:38:50;22.17;;;13.53;;
5491;SDS011;2768;53.540;10.224;2022-12-18T17:44:46;21.10;;;12.60;;
5491;SDS011;2768;53.540;10.224;2022-12-18T17:50:39;21.13;;;12.77;;
5491;SDS011;2768;53.540;10.224;2022-12-18T17:56:33;18.47;;;12.70;;
5491;SDS011;2768;53.540;10.224;2022-12-18T18:02:28;17.57;;;12.77;;
5491;SDS011;2768;53.540;10.224;2022-12-18T18:08:22;16.13;;;10.50;;
5491;SDS011;2768;53.540;10.224;2022-12-18T18:14:16;18.80;;;10.90;;
5491;SDS011;2768;53.540;10.224;2022-12-18T18:20:16;16.20;;;10.40;;
5491;SDS011;2768;53.540;10.224;2022-12-18T18:26:13;16.30;;;10.87;;
5491;SDS011;2768;53.540;10.224;2022-12-18T18:32:06;15.60;;;9.80;;
5491;SDS011;2768;53.540;10.224;2022-12-18T18:38:01;15.17;;;9.50;;
5491;SDS011;2768;53.540;10.224;2022-12-18T18:43:55;12.83;;;8.47;;
5491;SDS011;2768;53.540;10.224;2022-12-18T18:49:50;16.33;;;9.90;;
5491;SDS011;2768;53.540;10.224;2022-12-18T18:55:45;16.60;;;11.60;;
5491;SDS011;2768;53.540;10.224;2022-12-18T19:01:58;14.90;;;9.07;;
5491;SDS011;2768;53.540;10.224;2022-12-18T19:07:55;13.33;;;8.93;;
5491;SDS011;2768;53.540;10.224;2022-12-18T19:13:50;12.60;;;8.70;;
5491;SDS011;2768;53.540;10.224;2022-12-18T19:19:45;14.10;;;9.00;;
5491;SDS011;2768;53.540;10.224;2022-12-18T19:25:40;13.70;;;10.20;;
5491;SDS011;2768;53.540;10.224;2022-12-18T19:31:35;14.63;;;9.90;;
5491;SDS011;2768;53.540;10.224;2022-12-18T19:37:29;12.67;;;8.47;;
5491;SDS011;2768;53.540;10.224;2022-12-18T19:43:22;13.97;;;8.90;;
5491;SDS011;2768;53.540;10.224;2022-12-18T19:49:20;15.17;;;9.43;;
5491;SDS011;2768;53.540;10.224;2022-12-18T19:55:14;14.97;;;9.03;;
5491;SDS011;2768;53.540;10.224;2022-12-18T20:01:11;19.20;;;10.20;;
5491;SDS011;2768;53.540;10.224;2022-12-18T20:07:09;15.93;;;9.60;;
5491;SDS011;2768;53.540;10.224;2022-12-18T20:13:06;22.67;;;10.33;;
5491;SDS011;2768;53.540;10.224;2022-12-18T20:19:00;15.20;;;9.43;;
5491;SDS011;2768;53.540;10.224;2022-12-18T20:24:55;15.87;;;9.67;;
5491;SDS011;2768;53.540;10.224;2022-12-18T20:30:48;14.87;;;9.70;;
5491;SDS011;2768;53.540;10.224;2022-12-18T20:36:43;16.53;;;9.40;;
5491;SDS011;2768;53.540;10.224;2022-12-18T20:42:38;16.50;;;10.47;;
5491;SDS011;2768;53.540;10.224;2022-12-18T20:48:31;17.97;;;10.20;;
5491;SDS011;2768;53.540;10.224;2022-12-18T20:54:26;16.00;;;10.90;;
5491;SDS011;2768;53.540;10.224;2022-12-18T21:00:21;14.33;;;9.67;;
5491;SDS011;2768;53.540;10.224;2022-12-18T21:06:15;14.80;;;9.80;;
5491;SDS011;2768;53.540;10.224;2022-12-18T21:12:10;17.77;;;12.07;;
5491;SDS011;2768;53.540;10.224;2022-12-18T21:18:24;15.90;;;10.50;;
5491;SDS011;2768;53.540;10.224;2022-12-18T21:24:18;16.50;;;9.97;;
5491;SDS011;2768;53.540;10.224;2022-12-18T21:30:12;13.10;;;9.50;;
5491;SDS011;2768;53.540;10.224;2022-12-18T21:36:08;17.37;;;10.77;;
5491;SDS011;2768;53.540;10.224;2022-12-18T21:42:02;17.03;;;10.87;;
5491;SDS011;2768;53.540;10.224;2022-12-18T21:48:13;15.23;;;9.37;;
5491;SDS011;2768;53.540;10.224;2022-12-18T21:54:07;15.60;;;10.17;;
5491;SDS011;2768;53.540;10.224;2022-12-18T22:00:02;16.67;;;10.70;;
5491;SDS011;2768;53.540;10.224;2022-12-18T22:06:02;18.97;;;11.30;;
5491;SDS011;2768;53.540;10.224;2022-12-18T22:12:01;14.63;;;10.10;;
5491;SDS011;2768;53.540;10.224;2022-12-18T22:17:54;15.87;;;10.97;;
5491;SDS011;2768;53.540;10.224;2022-12-18T22:23:51;16.00;;;10.97;;
5491;SDS011;2768;53.540;10.224;2022-12-18T22:29:47;17.00;;;11.70;;
5491;SDS011;2768;53.540;10.224;2022-12-18T22:42:55;20.23;;;11.20;;
5491;SDS011;2768;53.540;10.224;2022-12-18T22:48:50;19.30;;;11.37;;
5491;SDS011;2768;53.540;10.224;2022-12-18T22:54:44;18.47;;;11.10;;
5491;SDS011;2768;53.540;10.224;2022-12-18T23:00:38;17.93;;;12.00;;
5491;SDS011;2768;53.540;10.224;2022-12-18T23:06:33;20.07;;;10.80;;
5491;SDS011;2768;53.540;10.224;2022-12-18T23:12:32;17.30;;;10.47;;
5491;SDS011;2768;53.540;10.224;2022-12-18T23:18:28;15.97;;;10.00;;
5491;SDS011;2768;53.540;10.224;2022-12-18T23:24:23;18.40;;;10.97;;
5491;SDS011;2768;53.540;10.224;2022-12-18T23:30:17;17.40;;;11.50;;
5491;SDS011;2768;53.540;10.224;2022-12-18T23:36:10;19.17;;;11.37;;
5491;SDS011;2768;53.540;10.224;2022-12-18T23:42:06;17.60;;;11.60;;
5491;SDS011;2768;53.540;10.224;2022-12-18T23:48:01;18.40;;;11.10;;
5491;SDS011;2768;53.540;10.224;2022-12-18T23:53:56;18.40;;;12.40;;
5491;SDS011;2768;53.540;10.224;2022-12-18T23:59:52;15.37;;;10.80;;
